createdAt,value
2023-02-14T00:01:54.689Z,95.62
2023-02-14T00:04:23.052Z,95.62
2023-02-14T00:06:51.529Z,95.18
2023-02-14T00:09:21.556Z,95.19
2023-02-14T00:11:49.913Z,95.36
2023-02-14T00:14:36.376Z,95.53
2023-02-14T00:17:05.442Z,95.48
2023-02-14T00:19:35.606Z,94.38
2023-02-14T00:22:04.989Z,94.82
2023-02-14T00:24:34.064Z,95.37
2023-02-14T00:27:02.560Z,94.97
2023-02-14T00:29:33.154Z,91.54
2023-02-14T00:32:02.339Z,90.47
2023-02-14T00:34:31.006Z,90.35
2023-02-14T00:36:59.962Z,92.04
2023-02-14T00:39:28.265Z,91.82
2023-02-14T00:41:56.636Z,92.11
2023-02-14T00:44:25.002Z,92.75
2023-02-14T00:46:53.397Z,92.77
2023-02-14T00:49:21.712Z,92.92
2023-02-14T00:51:50.005Z,91.81
2023-02-14T00:54:18.680Z,90.96
2023-02-14T00:56:47.035Z,91.15
2023-02-14T00:59:15.527Z,90.34
2023-02-14T01:01:43.822Z,90.42
2023-02-14T01:04:12.266Z,90.28
2023-02-14T01:06:40.621Z,89.50
2023-02-14T01:09:08.925Z,89.84
2023-02-14T01:11:37.489Z,89.36
2023-02-14T01:14:05.791Z,89.33
2023-02-14T01:16:34.497Z,89.01
2023-02-14T01:19:02.912Z,87.34
2023-02-14T01:21:34.094Z,86.59
2023-02-14T01:24:06.216Z,86.16
2023-02-14T01:26:35.569Z,84.89
2023-02-14T01:29:05.367Z,84.59
2023-02-14T01:31:36.144Z,84.73
2023-02-14T01:34:06.008Z,84.33
2023-02-14T01:36:38.430Z,84.22
2023-02-14T01:39:12.318Z,84.02
2023-02-14T01:41:42.786Z,83.84
2023-02-14T01:44:17.908Z,83.61
2023-02-14T01:46:47.664Z,83.52
2023-02-14T01:49:34.096Z,82.79
2023-02-14T01:52:17.398Z,82.23
2023-02-14T01:54:53.353Z,81.50
2023-02-14T01:57:24.498Z,81.07
2023-02-14T01:59:57.470Z,80.12
2023-02-14T02:02:25.860Z,79.42
2023-02-14T02:04:57.744Z,78.93
2023-02-14T02:07:30.308Z,79.05
2023-02-14T02:10:04.192Z,76.62
2023-02-14T02:12:33.615Z,76.81
2023-02-14T02:15:04.306Z,76.30
2023-02-14T02:17:50.581Z,75.71
2023-02-14T02:20:49.557Z,75.22
2023-02-14T02:24:02.043Z,74.52
2023-02-14T02:27:00.429Z,74.06
2023-02-14T02:29:43.642Z,74.10
2023-02-14T02:32:33.454Z,74.03
2023-02-14T02:35:32.448Z,71.89
2023-02-14T02:38:18.692Z,72.27
2023-02-14T02:41:01.378Z,72.46
2023-02-14T02:43:57.281Z,71.02
2023-02-14T02:46:49.084Z,70.11
2023-02-14T02:49:50.580Z,68.03
2023-02-14T02:52:42.852Z,64.83
2023-02-14T02:55:30.445Z,66.32
2023-02-14T02:58:01.349Z,66.94
2023-02-14T03:00:31.339Z,63.67
2023-02-14T03:03:17.995Z,66.87
2023-02-14T03:05:46.709Z,63.10
2023-02-14T03:08:14.982Z,64.33
2023-02-14T03:10:43.306Z,61.71
2023-02-14T03:13:20.697Z,62.56
2023-02-14T03:15:57.794Z,59.67
2023-02-14T03:18:50.166Z,66.48
2023-02-14T03:21:48.719Z,63.54
2023-02-14T03:24:41.557Z,59.68
2023-02-14T03:27:31.042Z,62.47
2023-02-14T03:30:11.129Z,57.67
2023-02-14T03:32:50.410Z,60.95
2023-02-14T03:35:34.141Z,59.78
2023-02-14T03:38:19.713Z,58.16
2023-02-14T03:40:55.573Z,61.38
2023-02-14T03:43:34.314Z,60.05
2023-02-14T03:46:26.133Z,56.47
2023-02-14T03:48:59.132Z,56.75
2023-02-14T03:51:35.095Z,56.78
2023-02-14T03:54:06.966Z,54.04
2023-02-14T03:56:47.491Z,51.00
2023-02-14T03:59:19.274Z,54.36
2023-02-14T04:01:57.999Z,55.90
2023-02-14T04:04:32.024Z,56.35
2023-02-14T04:07:00.432Z,53.64
2023-02-14T04:09:28.702Z,55.19
2023-02-14T04:11:57.305Z,51.63
2023-02-14T04:14:27.727Z,51.44
2023-02-14T04:17:14.614Z,53.80
2023-02-14T04:19:42.944Z,52.98
2023-02-14T04:22:11.408Z,56.04
2023-02-14T04:24:39.916Z,51.16
2023-02-14T04:27:12.056Z,49.12
2023-02-14T04:29:45.763Z,49.67
2023-02-14T04:32:17.327Z,48.54
2023-02-14T04:34:46.053Z,47.37
2023-02-14T04:37:16.464Z,45.71
2023-02-14T04:39:44.793Z,47.60
2023-02-14T04:42:13.390Z,47.23
2023-02-14T04:44:41.721Z,45.45
2023-02-14T04:47:10.764Z,52.22
2023-02-14T04:49:39.176Z,48.34
2023-02-14T04:52:08.165Z,48.39
2023-02-14T04:54:36.577Z,46.72
2023-02-14T04:57:05.179Z,49.96
2023-02-14T04:59:33.441Z,46.44
2023-02-14T05:02:01.841Z,47.79
2023-02-14T05:04:30.188Z,47.95
2023-02-14T05:06:58.496Z,52.16
2023-02-14T05:09:26.918Z,49.64
2023-02-14T05:11:55.347Z,48.58
2023-02-14T05:14:23.805Z,48.73
2023-02-14T05:16:52.434Z,47.98
2023-02-14T05:19:20.883Z,43.93
2023-02-14T05:21:49.326Z,46.57
2023-02-14T05:24:19.222Z,46.00
2023-02-14T05:26:47.641Z,48.68
2023-02-14T05:29:16.059Z,49.60
2023-02-14T05:31:44.463Z,46.51
2023-02-14T05:34:13.264Z,47.12
2023-02-14T05:36:41.770Z,44.82
2023-02-14T05:39:10.182Z,47.04
2023-02-14T05:44:05.190Z,45.65
2023-02-14T05:46:33.587Z,47.53
2023-02-14T05:49:01.960Z,45.93
2023-02-14T05:51:30.305Z,45.77
2023-02-14T05:54:00.934Z,47.29
2023-02-14T05:56:29.328Z,48.05
2023-02-14T05:58:57.674Z,46.44
2023-02-14T06:01:26.207Z,46.59
2023-02-14T06:03:54.538Z,47.56
2023-02-14T06:06:23.038Z,47.17
2023-02-14T06:08:51.410Z,44.31
2023-02-14T06:11:19.745Z,43.86
2023-02-14T06:13:48.146Z,44.48
2023-02-14T06:16:16.536Z,47.50
2023-02-14T06:18:44.876Z,45.86
2023-02-14T06:21:13.218Z,44.64
2023-02-14T06:23:41.582Z,44.77
2023-02-14T06:26:10.080Z,43.21
2023-02-14T06:28:38.464Z,42.59
2023-02-14T06:31:06.952Z,43.31
2023-02-14T06:33:35.489Z,42.32
2023-02-14T06:36:03.943Z,43.40
2023-02-14T06:38:32.330Z,42.08
2023-02-14T06:41:11.688Z,40.95
2023-02-14T06:43:40.390Z,40.82
2023-02-14T06:46:08.911Z,41.31
2023-02-14T06:48:37.646Z,39.87
2023-02-14T06:51:06.192Z,38.56
2023-02-14T06:53:34.844Z,39.55
2023-02-14T06:56:03.429Z,42.79
2023-02-14T06:58:32.255Z,45.37
2023-02-14T07:01:01.133Z,41.90
2023-02-14T07:03:32.459Z,40.79
2023-02-14T07:06:00.775Z,40.52
2023-02-14T07:08:29.117Z,40.45
2023-02-14T07:10:58.954Z,39.55
2023-02-14T07:13:28.121Z,38.96
2023-02-14T07:15:56.586Z,39.95
2023-02-14T07:18:24.973Z,41.13
2023-02-14T07:20:53.507Z,41.38
2023-02-14T07:23:21.871Z,39.81
2023-02-14T07:25:50.175Z,42.20
2023-02-14T07:28:18.570Z,40.93
2023-02-14T07:30:47.037Z,39.85
2023-02-14T07:33:15.397Z,40.14
2023-02-14T07:35:43.823Z,39.42
2023-02-14T07:38:12.402Z,41.44
2023-02-14T07:40:41.102Z,40.09
2023-02-14T07:43:09.514Z,42.21
2023-02-14T07:45:37.944Z,39.85
2023-02-14T07:48:06.943Z,39.06
2023-02-14T07:50:35.312Z,42.69
2023-02-14T07:53:03.753Z,43.25
2023-02-14T07:55:32.134Z,38.97
2023-02-14T07:58:00.484Z,42.09
2023-02-14T08:00:29.009Z,37.06
2023-02-14T08:02:57.413Z,38.86
2023-02-14T08:05:25.887Z,39.55
2023-02-14T08:07:54.313Z,38.18
2023-02-14T08:10:22.706Z,37.76
2023-02-14T08:13:00.235Z,43.39
2023-02-14T08:15:52.022Z,39.89
2023-02-14T08:18:24.008Z,39.11
2023-02-14T08:20:52.609Z,38.33
2023-02-14T08:23:21.807Z,38.13
2023-02-14T08:25:51.473Z,38.12
2023-02-14T08:28:23.183Z,37.77
2023-02-14T08:30:52.091Z,38.01
2023-02-14T08:33:20.758Z,38.58
2023-02-14T08:35:49.753Z,37.80
2023-02-14T08:38:18.154Z,37.64
2023-02-14T08:40:46.742Z,36.57
2023-02-14T08:43:15.282Z,35.82
2023-02-14T08:45:44.046Z,37.93
2023-02-14T08:48:14.378Z,36.60
2023-02-14T08:50:44.118Z,38.10
2023-02-14T08:53:15.006Z,36.73
2023-02-14T08:55:43.522Z,38.72
2023-02-14T08:58:11.937Z,37.75
2023-02-14T09:00:40.733Z,37.44
2023-02-14T09:03:09.540Z,39.26
2023-02-14T09:05:38.457Z,40.82
2023-02-14T09:08:07.522Z,39.37
2023-02-14T09:10:36.059Z,37.58
2023-02-14T09:13:04.843Z,38.64
2023-02-14T09:15:36.291Z,40.74
2023-02-14T09:18:05.150Z,39.88
2023-02-14T09:20:48.417Z,39.06
2023-02-14T09:23:16.783Z,40.50
2023-02-14T09:25:45.116Z,40.01
2023-02-14T09:28:13.802Z,39.00
2023-02-14T09:30:42.694Z,42.47
2023-02-14T09:33:11.027Z,40.94
2023-02-14T09:35:57.993Z,40.98
2023-02-14T09:38:26.418Z,39.11
2023-02-14T09:40:54.831Z,39.38
2023-02-14T09:43:38.197Z,39.95
2023-02-14T09:46:12.775Z,38.72
2023-02-14T09:48:46.268Z,39.64
2023-02-14T09:51:26.460Z,41.26
2023-02-14T09:54:17.303Z,38.08
2023-02-14T09:57:18.641Z,40.04
2023-02-14T09:59:53.518Z,39.19
2023-02-14T10:02:46.239Z,41.64
2023-02-14T10:05:34.420Z,41.04
2023-02-14T10:08:32.102Z,40.28
2023-02-14T10:11:14.844Z,43.58
2023-02-14T10:13:49.652Z,42.70
2023-02-14T10:16:41.531Z,43.78
2023-02-14T10:19:29.818Z,41.25
2023-02-14T10:22:16.180Z,43.02
2023-02-14T10:25:05.654Z,44.01
2023-02-14T10:27:40.714Z,44.67
2023-02-14T10:30:21.011Z,45.21
2023-02-14T10:33:08.863Z,45.45
2023-02-14T10:35:46.259Z,45.55
2023-02-14T10:38:34.858Z,45.93
2023-02-14T10:41:15.188Z,46.89
2023-02-14T10:44:14.601Z,46.99
2023-02-14T10:47:16.547Z,47.45
2023-02-14T10:49:58.292Z,47.77
2023-02-14T10:53:05.700Z,48.42
2023-02-14T10:55:56.452Z,49.08
2023-02-14T10:58:28.966Z,49.32
2023-02-14T11:01:07.220Z,49.72
2023-02-14T11:03:38.368Z,50.13
2023-02-14T11:06:07.672Z,50.45
2023-02-14T11:08:39.290Z,50.99
2023-02-14T11:11:26.133Z,52.90
2023-02-14T11:13:54.933Z,53.30
2023-02-14T11:16:35.608Z,54.16
2023-02-14T11:19:19.854Z,54.78
2023-02-14T11:21:51.532Z,54.77
2023-02-14T11:24:48.213Z,54.41
2023-02-14T11:27:22.107Z,54.90
2023-02-14T11:29:54.088Z,55.31
2023-02-14T11:32:29.460Z,55.95
2023-02-14T11:35:05.657Z,56.40
2023-02-14T11:37:55.709Z,56.86
2023-02-14T11:40:37.595Z,57.31
2023-02-14T11:43:14.800Z,58.05
2023-02-14T11:45:49.194Z,58.75
2023-02-14T11:48:19.962Z,58.57
2023-02-14T11:51:02.306Z,58.71
2023-02-14T11:53:52.333Z,59.27
2023-02-14T11:56:23.141Z,59.50
2023-02-14T11:59:06.622Z,59.91
2023-02-14T12:01:39.577Z,61.01
2023-02-14T12:04:19.036Z,61.35
2023-02-14T12:06:47.577Z,61.09
2023-02-14T12:09:25.528Z,58.09
2023-02-14T12:12:02.318Z,57.93
2023-02-14T12:14:36.538Z,58.11
2023-02-14T12:17:05.436Z,57.07
2023-02-14T12:19:48.162Z,56.83
2023-02-14T12:22:36.455Z,56.96
2023-02-14T12:25:29.305Z,57.11
2023-02-14T12:28:05.084Z,58.03
2023-02-14T12:30:36.558Z,56.95
2023-02-14T12:33:17.849Z,56.84
2023-02-14T12:35:46.630Z,57.29
2023-02-14T12:39:10.494Z,57.26
2023-02-14T12:42:01.855Z,57.48
2023-02-14T12:44:32.970Z,57.74
2023-02-14T12:47:33.875Z,57.65
2023-02-14T12:50:31.495Z,58.05
2023-02-14T12:53:27.905Z,58.08
2023-02-14T12:56:13.455Z,58.50
2023-02-14T12:58:48.138Z,58.71
2023-02-14T13:01:39.127Z,58.66
2023-02-14T13:04:42.762Z,59.43
2023-02-14T13:07:39.258Z,60.00
2023-02-14T13:10:41.231Z,59.82
2023-02-14T13:13:42.604Z,60.06
2023-02-14T13:16:33.826Z,60.23
2023-02-14T13:19:27.689Z,60.58
2023-02-14T13:21:59.784Z,61.03
2023-02-14T13:24:47.346Z,60.83
2023-02-14T13:27:24.904Z,61.33
2023-02-14T13:30:00.057Z,61.55
2023-02-14T13:32:34.542Z,61.40
2023-02-14T13:35:04.950Z,61.70
2023-02-14T13:37:34.416Z,61.80
2023-02-14T13:40:08.731Z,62.17
2023-02-14T13:42:49.741Z,61.59
2023-02-14T13:45:37.086Z,62.56
2023-02-14T13:48:12.834Z,63.44
2023-02-14T13:50:52.953Z,63.14
2023-02-14T13:53:39.525Z,62.86
2023-02-14T13:56:07.896Z,62.88
2023-02-14T13:58:37.205Z,63.02
2023-02-14T14:01:36.937Z,63.27
2023-02-14T14:04:25.646Z,63.73
2023-02-14T14:07:06.636Z,63.69
2023-02-14T14:09:44.717Z,64.24
2023-02-14T14:12:28.514Z,65.11
2023-02-14T14:15:09.375Z,64.09
2023-02-14T14:17:40.716Z,64.73
2023-02-14T14:20:21.355Z,66.01
2023-02-14T14:22:58.747Z,64.65
2023-02-14T14:25:40.901Z,64.97
2023-02-14T14:28:13.793Z,65.42
2023-02-14T14:30:45.791Z,67.22
2023-02-14T14:33:34.769Z,67.60
2023-02-14T14:36:09.851Z,67.59
2023-02-14T14:38:50.508Z,67.56
2023-02-14T14:41:19.572Z,67.51
2023-02-14T14:43:49.324Z,66.28
2023-02-14T14:46:19.896Z,67.00
2023-02-14T14:48:52.257Z,65.91
2023-02-14T14:51:27.214Z,65.89
2023-02-14T14:54:10.086Z,66.05
2023-02-14T14:57:02.581Z,66.16
2023-02-14T14:59:36.965Z,66.27
2023-02-14T15:02:22.332Z,67.04
2023-02-14T15:04:50.999Z,66.60
2023-02-14T15:07:35.548Z,67.59
2023-02-14T15:10:04.773Z,68.35
2023-02-14T15:12:51.957Z,67.78
2023-02-14T15:15:20.662Z,67.71
2023-02-14T15:17:49.305Z,67.11
2023-02-14T15:20:22.570Z,67.98
2023-02-14T15:22:53.772Z,68.18
2023-02-14T15:25:35.378Z,68.42
2023-02-14T15:28:04.371Z,69.78
2023-02-14T15:30:38.161Z,69.92
2023-02-14T15:33:08.587Z,68.21
2023-02-14T15:35:45.180Z,69.20
2023-02-14T15:38:15.080Z,70.40
2023-02-14T15:40:45.236Z,70.34
2023-02-14T15:43:19.647Z,69.33
2023-02-14T15:45:54.253Z,69.72
2023-02-14T15:48:30.460Z,68.70
2023-02-14T15:51:01.416Z,69.06
2023-02-14T15:53:52.683Z,70.05
2023-02-14T15:56:32.999Z,68.40
2023-02-14T15:59:13.925Z,68.22
2023-02-14T16:01:44.420Z,68.84
2023-02-14T16:04:13.008Z,68.87
2023-02-14T16:06:50.246Z,68.53
2023-02-14T16:09:31.513Z,68.23
2023-02-14T16:12:00.116Z,68.17
2023-02-14T16:14:36.074Z,68.10
2023-02-14T16:17:07.734Z,68.39
2023-02-14T16:19:43.987Z,68.17
2023-02-14T16:22:33.086Z,67.90
2023-02-14T16:25:02.521Z,68.37
2023-02-14T16:27:30.867Z,67.72
2023-02-14T16:29:59.709Z,68.52
2023-02-14T16:32:28.183Z,67.94
2023-02-14T16:34:56.608Z,67.87
2023-02-14T16:37:26.955Z,68.29
2023-02-14T16:39:58.644Z,67.45
2023-02-14T16:42:27.031Z,67.95
2023-02-14T16:44:55.396Z,67.98
2023-02-14T16:47:23.869Z,67.50
2023-02-14T16:49:53.994Z,67.70
2023-02-14T16:52:26.696Z,67.70
2023-02-14T16:54:55.258Z,67.35
2023-02-14T16:57:45.119Z,67.28
2023-02-14T17:00:14.239Z,68.06
2023-02-14T17:02:44.387Z,67.84
2023-02-14T17:05:13.298Z,67.72
2023-02-14T17:07:44.688Z,67.29
2023-02-14T17:10:20.682Z,67.36
2023-02-14T17:12:51.277Z,67.13
2023-02-14T17:15:23.249Z,67.12
2023-02-14T17:17:53.074Z,67.66
2023-02-14T17:20:22.846Z,67.09
2023-02-14T17:22:51.393Z,67.10
2023-02-14T17:25:19.781Z,67.15
2023-02-14T17:27:49.168Z,66.89
2023-02-14T17:30:17.974Z,66.48
2023-02-14T17:32:46.412Z,66.88
2023-02-14T17:35:15.399Z,66.80
2023-02-14T17:37:44.074Z,66.78
2023-02-14T17:40:13.677Z,66.82
2023-02-14T17:42:42.863Z,66.97
2023-02-14T17:45:12.722Z,67.73
2023-02-14T17:47:41.917Z,67.28
2023-02-14T17:50:11.404Z,66.98
2023-02-14T17:52:40.398Z,67.52
2023-02-14T17:55:10.208Z,68.00
2023-02-14T17:57:41.838Z,68.18
2023-02-14T18:00:11.889Z,68.09
2023-02-14T18:02:40.679Z,68.38
2023-02-14T18:05:09.351Z,69.22
2023-02-14T18:07:37.933Z,68.18
2023-02-14T18:10:07.093Z,67.95
2023-02-14T18:12:35.426Z,67.83
2023-02-14T18:15:03.727Z,69.14
2023-02-14T18:17:32.035Z,68.17
2023-02-14T18:20:00.327Z,67.50
2023-02-14T18:22:29.375Z,67.84
2023-02-14T18:24:59.651Z,67.93
2023-02-14T18:27:28.020Z,68.10
2023-02-14T18:29:56.358Z,67.83
2023-02-14T18:32:24.676Z,68.79
2023-02-14T18:34:53.385Z,68.13
2023-02-14T18:37:21.844Z,67.35
2023-02-14T18:39:50.186Z,67.49
2023-02-14T18:42:18.525Z,67.53
2023-02-14T18:44:48.935Z,67.80
2023-02-14T18:47:17.268Z,67.95
2023-02-14T18:49:45.589Z,67.24
2023-02-14T18:52:13.872Z,67.25
2023-02-14T18:54:42.252Z,67.57
2023-02-14T18:57:10.563Z,67.64
2023-02-14T18:59:38.916Z,66.66
2023-02-14T19:02:07.717Z,67.01
2023-02-14T19:04:36.364Z,67.23
2023-02-14T19:07:05.424Z,67.00
2023-02-14T19:09:39.917Z,66.92
2023-02-14T19:12:08.946Z,66.70
2023-02-14T19:14:38.001Z,66.79
2023-02-14T19:17:06.621Z,66.76
2023-02-14T19:19:35.619Z,66.93
2023-02-14T19:22:04.106Z,66.96
2023-02-14T19:24:32.397Z,67.44
2023-02-14T19:27:00.729Z,67.55
2023-02-14T19:29:29.147Z,67.76
2023-02-14T19:31:57.529Z,68.41
2023-02-14T19:34:30.166Z,67.71
2023-02-14T19:37:01.310Z,70.10
2023-02-14T19:39:31.118Z,69.44
2023-02-14T19:42:00.037Z,69.26
2023-02-14T19:44:30.182Z,69.71
2023-02-14T19:47:01.805Z,70.52
2023-02-14T19:49:30.782Z,70.34
2023-02-14T19:52:00.625Z,70.62
2023-02-14T19:54:29.449Z,71.21
2023-02-14T19:56:58.343Z,71.53
2023-02-14T19:59:26.717Z,70.09
2023-02-14T20:01:56.016Z,70.16
2023-02-14T20:04:26.765Z,70.32
2023-02-14T20:06:55.858Z,70.40
2023-02-14T20:09:24.964Z,71.35
2023-02-14T20:11:55.770Z,71.61
2023-02-14T20:14:31.459Z,71.61
2023-02-14T20:17:03.203Z,72.49
2023-02-14T20:19:37.965Z,72.04
2023-02-14T20:22:09.092Z,71.61
2023-02-14T20:24:37.491Z,72.16
2023-02-14T20:27:05.867Z,70.73
2023-02-14T20:29:34.206Z,70.79
2023-02-14T20:32:04.504Z,70.08
2023-02-14T20:34:32.895Z,70.70
2023-02-14T20:37:01.307Z,68.93
2023-02-14T20:39:33.099Z,70.57
2023-02-14T20:42:01.934Z,70.31
2023-02-14T20:44:30.860Z,70.44
2023-02-14T20:46:59.499Z,69.95
2023-02-14T20:49:29.310Z,70.13
2023-02-14T20:51:57.810Z,70.52
2023-02-14T20:54:28.022Z,69.87
2023-02-14T20:56:56.917Z,69.21
2023-02-14T20:59:28.111Z,69.27
2023-02-14T21:02:00.478Z,69.31
2023-02-14T21:04:29.510Z,69.61
2023-02-14T21:06:58.758Z,69.54
2023-02-14T21:09:27.323Z,69.84
2023-02-14T21:11:55.611Z,69.42
2023-02-14T21:14:23.961Z,69.08
2023-02-14T21:16:52.689Z,69.44
2023-02-14T21:19:21.320Z,69.45
2023-02-14T21:21:49.662Z,69.04
2023-02-14T21:24:18.429Z,68.78
2023-02-14T21:26:47.946Z,68.76
2023-02-14T21:29:16.287Z,69.16
2023-02-14T21:31:44.748Z,69.34
2023-02-14T21:34:16.295Z,69.27
2023-02-14T21:36:44.658Z,69.36
2023-02-14T21:39:12.956Z,69.16
2023-02-14T21:41:41.326Z,69.22
2023-02-14T21:44:09.952Z,68.91
2023-02-14T21:46:41.975Z,69.26
2023-02-14T21:49:31.961Z,69.35
2023-02-14T21:52:00.423Z,69.37
2023-02-14T21:54:28.767Z,69.00
2023-02-14T21:56:57.056Z,69.52
2023-02-14T21:59:25.455Z,69.66
2023-02-14T22:01:53.875Z,69.84
2023-02-14T22:04:22.205Z,70.53
2023-02-14T22:06:50.617Z,69.56
2023-02-14T22:09:19.923Z,69.29
2023-02-14T22:11:51.061Z,68.79
2023-02-14T22:14:19.545Z,69.65
2023-02-14T22:16:47.960Z,69.69
2023-02-14T22:19:17.704Z,70.01
2023-02-14T22:21:46.097Z,69.37
2023-02-14T22:24:15.030Z,69.30
2023-02-14T22:26:43.437Z,69.33
2023-02-14T22:29:13.796Z,69.38
2023-02-14T22:31:44.169Z,69.04
2023-02-14T22:34:15.519Z,69.09
2023-02-14T22:36:43.827Z,69.17
2023-02-14T22:39:15.458Z,69.61
2023-02-14T22:41:44.643Z,69.32
2023-02-14T22:44:14.227Z,69.62
2023-02-14T22:46:43.136Z,68.91
2023-02-14T22:49:11.459Z,68.72
2023-02-14T22:51:42.368Z,68.83
2023-02-14T22:54:15.892Z,69.16
2023-02-14T22:56:49.371Z,68.74
2023-02-14T23:04:26.091Z,68.28
2023-02-14T23:06:55.060Z,68.78
2023-02-14T23:09:25.058Z,68.90
2023-02-14T23:11:53.494Z,68.88
2023-02-14T23:14:40.498Z,68.71
2023-02-14T23:17:27.012Z,69.08
2023-02-14T23:20:13.426Z,69.10
2023-02-14T23:22:42.291Z,68.38
2023-02-14T23:25:13.082Z,68.68
2023-02-14T23:27:44.943Z,68.29
2023-02-14T23:30:17.505Z,68.03
2023-02-14T23:32:46.185Z,68.47
2023-02-14T23:35:15.410Z,68.25
2023-02-14T23:37:43.780Z,68.03
2023-02-14T23:40:12.473Z,68.58
2023-02-14T23:42:40.843Z,68.50
2023-02-14T23:45:27.868Z,68.44
2023-02-14T23:47:56.224Z,67.82
2023-02-14T23:50:24.555Z,67.77
2023-02-14T23:52:52.860Z,67.76
2023-02-14T23:55:21.251Z,68.74
2023-02-14T23:57:49.657Z,68.07
